createdAt,value
2018-06-27T00:01:21.819Z,98410.60
2018-06-27T00:03:49.429Z,98416.20
2018-06-27T00:06:17.006Z,98417.33
2018-06-27T00:08:44.608Z,98413.63
2018-06-27T00:11:12.269Z,98411.72
2018-06-27T00:13:40.072Z,98412.72
2018-06-27T00:16:07.945Z,98411.44
2018-06-27T00:18:35.584Z,98415.13
2018-06-27T00:21:03.253Z,98422.34
2018-06-27T00:23:30.864Z,98418.13
2018-06-27T00:25:58.461Z,98414.82
2018-06-27T00:28:26.051Z,98410.06
2018-06-27T00:30:53.666Z,98418.22
2018-06-27T00:33:21.230Z,98421.33
2018-06-27T00:35:48.770Z,98427.77
2018-06-27T00:38:17.332Z,98425.59
2018-06-27T00:40:45.404Z,98430.56
2018-06-27T00:43:13.463Z,98425.32
2018-06-27T00:45:40.998Z,98427.84
2018-06-27T00:48:08.991Z,98429.22
2018-06-27T00:50:36.679Z,98423.42
2018-06-27T00:53:04.240Z,98425.31
2018-06-27T00:55:31.874Z,98431.47
2018-06-27T00:57:59.466Z,98427.73
2018-06-27T01:00:27.023Z,98426.44
2018-06-27T01:02:54.835Z,98426.89
2018-06-27T01:05:22.350Z,98423.42
2018-06-27T01:07:49.898Z,98413.22
2018-06-27T01:10:17.527Z,98414.72
2018-06-27T01:12:45.666Z,98413.56
2018-06-27T01:15:13.252Z,98411.08
2018-06-27T01:17:40.978Z,98410.26
2018-06-27T01:20:08.534Z,98409.98
2018-06-27T01:22:36.121Z,98411.66
2018-06-27T01:25:03.834Z,98413.41
2018-06-27T01:27:31.466Z,98406.38
2018-06-27T01:29:59.028Z,98405.20
2018-06-27T01:32:26.727Z,98404.53
2018-06-27T01:34:54.311Z,98409.70
2018-06-27T01:37:21.900Z,98408.54
2018-06-27T01:39:49.507Z,98419.78
2018-06-27T01:42:17.061Z,98420.30
2018-06-27T01:44:44.663Z,98427.91
2018-06-27T01:47:12.295Z,98428.97
2018-06-27T01:49:39.887Z,98429.88
2018-06-27T01:52:07.420Z,98423.87
2018-06-27T01:54:35.004Z,98424.23
2018-06-27T01:57:02.570Z,98423.81
2018-06-27T01:59:30.116Z,98421.88
2018-06-27T02:01:57.693Z,98428.80
2018-06-27T02:04:25.247Z,98424.61
2018-06-27T02:06:52.795Z,98430.82
2018-06-27T02:09:20.367Z,98428.17
2018-06-27T02:11:47.935Z,98428.59
2018-06-27T02:14:15.470Z,98428.53
2018-06-27T02:16:43.054Z,98431.47
2018-06-27T02:19:10.619Z,98432.73
2018-06-27T02:21:38.182Z,98429.94
2018-06-27T02:24:05.808Z,98432.73
2018-06-27T02:26:33.337Z,98428.06
2018-06-27T02:29:00.926Z,98429.09
2018-06-27T02:31:28.556Z,98428.47
2018-06-27T02:33:56.127Z,98432.58
2018-06-27T02:36:23.692Z,98432.99
2018-06-27T02:38:51.325Z,98431.19
2018-06-27T02:41:18.864Z,98433.06
2018-06-27T02:43:46.432Z,98428.88
2018-06-27T02:46:14.018Z,98420.25
2018-06-27T02:48:41.565Z,98426.59
2018-06-27T02:51:09.172Z,98425.83
2018-06-27T02:53:38.603Z,98423.70
2018-06-27T02:56:08.215Z,98431.48
2018-06-27T02:58:35.795Z,98434.53
2018-06-27T03:01:04.354Z,98438.86
2018-06-27T03:03:32.019Z,98440.55
2018-06-27T03:05:59.995Z,98439.16
2018-06-27T03:08:27.747Z,98442.94
2018-06-27T03:10:55.468Z,98443.27
2018-06-27T03:13:23.055Z,98446.90
2018-06-27T03:15:50.615Z,98449.87
2018-06-27T03:18:18.179Z,98447.52
2018-06-27T03:20:45.767Z,98449.87
2018-06-27T03:23:13.398Z,98456.13
2018-06-27T03:25:40.939Z,98455.30
2018-06-27T03:28:08.495Z,98453.79
2018-06-27T03:30:36.087Z,98450.48
2018-06-27T03:33:03.686Z,98457.77
2018-06-27T03:35:31.235Z,98451.58
2018-06-27T03:37:58.806Z,98454.45
2018-06-27T03:40:26.366Z,98459.28
2018-06-27T03:42:53.939Z,98462.34
2018-06-27T03:45:21.603Z,98469.78
2018-06-27T03:47:49.178Z,98465.75
2018-06-27T03:50:16.754Z,98454.74
2018-06-27T03:52:46.707Z,98462.56
2018-06-27T03:55:14.531Z,98462.42
2018-06-27T03:57:42.106Z,98468.22
2018-06-27T04:00:09.427Z,98469.55
2018-06-27T04:02:36.966Z,98471.41
2018-06-27T04:05:04.687Z,98470.83
2018-06-27T04:07:32.267Z,98472.59
2018-06-27T04:09:59.906Z,98471.56
2018-06-27T04:12:27.542Z,98473.66
2018-06-27T04:14:55.138Z,98477.15
2018-06-27T04:17:22.790Z,98476.31
2018-06-27T04:19:50.361Z,98477.23
2018-06-27T04:22:22.966Z,98470.80
2018-06-27T04:24:50.482Z,98479.98
2018-06-27T04:27:18.042Z,98475.35
2018-06-27T04:29:45.631Z,98488.49
2018-06-27T04:32:13.167Z,98480.45
2018-06-27T04:34:40.714Z,98482.06
2018-06-27T04:37:08.327Z,98485.27
2018-06-27T04:39:35.960Z,98489.80
2018-06-27T04:42:03.534Z,98488.62
2018-06-27T04:44:31.105Z,98490.30
2018-06-27T04:46:58.746Z,98485.88
2018-06-27T04:49:26.332Z,98482.31
2018-06-27T04:51:53.901Z,98484.48
2018-06-27T04:54:21.446Z,98495.94
2018-06-27T04:56:48.985Z,98497.00
2018-06-27T04:59:16.574Z,98493.64
2018-06-27T05:01:44.158Z,98500.06
2018-06-27T05:04:11.651Z,98505.71
2018-06-27T05:06:39.197Z,98509.76
2018-06-27T05:09:08.122Z,98509.09
2018-06-27T05:11:35.693Z,98500.43
2018-06-27T05:14:03.365Z,98501.83
2018-06-27T05:16:30.889Z,98500.39
2018-06-27T05:18:58.460Z,98512.92
2018-06-27T05:21:26.057Z,98512.23
2018-06-27T05:23:53.598Z,98513.39
2018-06-27T05:26:21.122Z,98511.69
2018-06-27T05:28:48.670Z,98513.23
2018-06-27T05:31:16.258Z,98518.20
2018-06-27T05:33:43.802Z,98513.33
2018-06-27T05:36:11.368Z,98516.61
2018-06-27T05:38:39.022Z,98518.41
2018-06-27T05:41:06.579Z,98523.37
2018-06-27T05:43:34.186Z,98522.07
2018-06-27T05:46:01.737Z,98528.01
2018-06-27T05:48:29.267Z,98522.50
2018-06-27T05:50:56.850Z,98518.31
2018-06-27T05:53:24.386Z,98528.15
2018-06-27T05:55:51.931Z,98537.42
2018-06-27T05:58:19.582Z,98533.17
2018-06-27T06:00:47.086Z,98535.36
2018-06-27T06:03:14.638Z,98540.09
2018-06-27T06:05:42.236Z,98538.79
2018-06-27T06:08:09.758Z,98540.25
2018-06-27T06:10:37.322Z,98535.14
2018-06-27T06:13:04.999Z,98538.56
2018-06-27T06:15:32.531Z,98537.33
2018-06-27T06:18:00.087Z,98537.59
2018-06-27T06:20:27.688Z,98538.25
2018-06-27T06:22:55.208Z,98532.52
2018-06-27T06:25:22.770Z,98539.55
2018-06-27T06:27:50.347Z,98540.05
2018-06-27T06:30:17.891Z,98549.27
2018-06-27T06:32:45.419Z,98549.93
2018-06-27T06:35:12.962Z,98546.84
2018-06-27T06:37:40.721Z,98548.88
2018-06-27T06:40:08.084Z,98547.36
2018-06-27T06:42:35.666Z,98552.83
2018-06-27T06:45:03.268Z,98557.50
2018-06-27T06:47:30.806Z,98562.69
2018-06-27T06:49:58.358Z,98559.44
2018-06-27T06:52:25.884Z,98559.96
2018-06-27T06:54:53.399Z,98562.33
2018-06-27T06:57:20.962Z,98556.77
2018-06-27T06:59:48.491Z,98559.97
2018-06-27T07:02:16.022Z,98558.00
2018-06-27T07:04:43.586Z,98559.06
2018-06-27T07:07:11.127Z,98558.40
2018-06-27T07:09:38.651Z,98555.48
2018-06-27T07:12:06.268Z,98557.24
2018-06-27T07:14:33.806Z,98559.23
2018-06-27T07:17:01.355Z,98565.86
2018-06-27T07:19:28.982Z,98563.75
2018-06-27T07:21:56.506Z,98564.61
2018-06-27T07:24:24.020Z,98564.72
2018-06-27T07:26:51.588Z,98572.16
2018-06-27T07:29:19.144Z,98572.86
2018-06-27T07:31:46.679Z,98570.65
2018-06-27T07:34:14.240Z,98565.59
2018-06-27T07:36:41.915Z,98566.77
2018-06-27T07:39:10.803Z,98562.73
2018-06-27T07:41:38.407Z,98560.31
2018-06-27T07:44:05.947Z,98556.10
2018-06-27T07:46:33.583Z,98555.84
2018-06-27T07:49:01.163Z,98561.98
2018-06-27T07:51:28.727Z,98556.57
2018-06-27T07:53:56.287Z,98568.26
2018-06-27T07:56:24.114Z,98560.99
2018-06-27T07:58:51.635Z,98551.90
2018-06-27T08:01:19.199Z,98560.36
2018-06-27T08:03:46.762Z,98564.70
2018-06-27T08:06:14.307Z,98563.34
2018-06-27T08:08:41.870Z,98562.70
2018-06-27T08:11:09.536Z,98560.09
2018-06-27T08:13:37.110Z,98561.47
2018-06-27T08:16:04.950Z,98557.25
2018-06-27T08:18:41.701Z,98553.76
2018-06-27T08:21:09.527Z,98547.53
2018-06-27T08:23:37.067Z,98553.76
2018-06-27T08:26:04.798Z,98552.22
2018-06-27T08:28:32.280Z,98556.59
2018-06-27T08:30:59.858Z,98559.52
2018-06-27T08:33:27.439Z,98553.70
2018-06-27T08:35:54.978Z,98554.72
2018-06-27T08:38:22.513Z,98551.12
2018-06-27T08:40:50.086Z,98554.73
2018-06-27T08:43:17.613Z,98563.28
2018-06-27T08:45:45.168Z,98562.17
2018-06-27T08:48:12.783Z,98566.72
2018-06-27T08:50:40.320Z,98563.38
2018-06-27T08:53:07.875Z,98558.98
2018-06-27T08:55:35.557Z,98557.19
2018-06-27T08:58:03.078Z,98562.30
2018-06-27T09:00:30.598Z,98556.97
2018-06-27T09:02:58.146Z,98557.94
2018-06-27T09:05:25.687Z,98559.15
2018-06-27T09:07:53.245Z,98556.34
2018-06-27T09:10:20.852Z,98555.66
2018-06-27T09:12:48.412Z,98557.84
2018-06-27T09:15:15.942Z,98565.63
2018-06-27T09:17:43.518Z,98554.53
2018-06-27T09:20:11.054Z,98559.67
2018-06-27T09:22:38.615Z,98555.45
2018-06-27T09:25:06.196Z,98564.77
2018-06-27T09:27:33.721Z,98565.88
2018-06-27T09:30:01.276Z,98568.56
2018-06-27T09:32:28.849Z,98568.53
2018-06-27T09:34:56.376Z,98572.48
2018-06-27T09:37:23.962Z,98574.19
2018-06-27T09:39:51.522Z,98566.54
2018-06-27T09:42:19.055Z,98563.80
2018-06-27T09:44:46.571Z,98571.98
2018-06-27T09:47:14.132Z,98566.38
2018-06-27T09:49:42.223Z,98565.31
2018-06-27T09:52:10.016Z,98570.13
2018-06-27T09:54:39.949Z,98562.95
2018-06-27T09:57:08.419Z,98559.86
2018-06-27T09:59:35.941Z,98568.81
2018-06-27T10:02:03.599Z,98575.52
2018-06-27T10:04:31.181Z,98554.23
2018-06-27T10:06:58.698Z,98560.98
2018-06-27T10:09:26.269Z,98558.82
2018-06-27T10:11:53.787Z,98556.98
2018-06-27T10:14:21.381Z,98552.30
2018-06-27T10:16:49.026Z,98553.36
2018-06-27T10:19:16.560Z,98546.88
2018-06-27T10:21:44.115Z,98543.15
2018-06-27T10:24:11.712Z,98548.41
2018-06-27T10:26:39.271Z,98554.09
2018-06-27T10:29:06.809Z,98552.92
2018-06-27T10:31:34.383Z,98552.92
2018-06-27T10:34:01.910Z,98552.47
2018-06-27T10:36:29.496Z,98553.81
2018-06-27T10:38:57.083Z,98550.45
2018-06-27T10:41:24.636Z,98557.77
2018-06-27T10:43:52.266Z,98555.52
2018-06-27T10:46:19.848Z,98560.75
2018-06-27T10:48:47.390Z,98560.41
2018-06-27T10:51:14.967Z,98559.02
2018-06-27T10:53:42.522Z,98554.13
2018-06-27T10:56:10.147Z,98562.61
2018-06-27T10:58:37.696Z,98559.73
2018-06-27T11:01:05.286Z,98557.08
2018-06-27T11:03:32.825Z,98559.26
2018-06-27T11:06:00.381Z,98558.17
2018-06-27T11:08:27.990Z,98565.82
2018-06-27T11:10:55.535Z,98565.48
2018-06-27T11:13:23.057Z,98565.06
2018-06-27T11:15:50.634Z,98561.48
2018-06-27T11:18:18.203Z,98573.78
2018-06-27T11:20:45.811Z,98570.16
2018-06-27T11:23:13.607Z,98566.53
2018-06-27T11:25:41.159Z,98561.88
2018-06-27T11:28:08.711Z,98564.06
2018-06-27T11:30:36.327Z,98561.45
2018-06-27T11:33:03.914Z,98563.20
2018-06-27T11:35:31.444Z,98558.73
2018-06-27T11:37:59.023Z,98561.23
2018-06-27T11:40:26.574Z,98560.91
2018-06-27T11:42:54.118Z,98561.88
2018-06-27T11:45:22.030Z,98567.23
2018-06-27T11:47:49.572Z,98561.70
2018-06-27T11:50:17.151Z,98563.99
2018-06-27T11:52:44.762Z,98560.63
2018-06-27T11:55:13.020Z,98562.02
2018-06-27T11:57:42.314Z,98565.63
2018-06-27T12:00:09.969Z,98560.67
2018-06-27T12:02:37.922Z,98547.97
2018-06-27T12:05:06.121Z,98541.75
2018-06-27T12:07:33.682Z,98550.12
2018-06-27T12:10:01.283Z,98541.56
2018-06-27T12:12:29.197Z,98531.08
2018-06-27T12:14:56.854Z,98535.03
2018-06-27T12:17:24.441Z,98538.23
2018-06-27T12:19:51.985Z,98524.23
2018-06-27T12:22:19.573Z,98526.06
2018-06-27T12:24:47.146Z,98518.73
2018-06-27T12:27:14.694Z,98522.36
2018-06-27T12:29:42.294Z,98523.39
2018-06-27T12:32:09.871Z,98500.36
2018-06-27T12:34:37.926Z,98523.15
2018-06-27T12:37:05.517Z,98517.08
2018-06-27T12:39:33.027Z,98516.70
2018-06-27T12:42:00.580Z,98517.23
2018-06-27T12:44:28.274Z,98520.09
2018-06-27T12:46:55.807Z,98515.17
2018-06-27T12:49:23.373Z,98521.08
2018-06-27T12:51:50.974Z,98519.76
2018-06-27T12:54:18.541Z,98526.83
2018-06-27T12:56:46.083Z,98511.09
2018-06-27T12:59:13.707Z,98506.55
2018-06-27T13:01:41.226Z,98507.11
2018-06-27T13:04:08.848Z,98508.25
2018-06-27T13:06:36.463Z,98503.28
2018-06-27T13:09:07.244Z,98502.10
2018-06-27T13:11:34.736Z,98486.02
2018-06-27T13:14:02.401Z,98500.81
2018-06-27T13:16:29.929Z,98496.20
2018-06-27T13:18:57.544Z,98497.42
2018-06-27T13:21:25.127Z,98489.47
2018-06-27T13:23:52.732Z,98490.89
2018-06-27T13:26:20.298Z,98486.91
2018-06-27T13:28:47.878Z,98488.51
2018-06-27T13:31:15.435Z,98478.39
2018-06-27T13:33:43.463Z,98488.20
2018-06-27T13:36:11.024Z,98489.95
2018-06-27T13:38:38.578Z,98492.33
2018-06-27T13:41:06.102Z,98482.08
2018-06-27T13:43:33.751Z,98494.36
2018-06-27T13:46:01.307Z,98493.61
2018-06-27T13:48:28.834Z,98500.36
2018-06-27T13:50:56.442Z,98488.55
2018-06-27T13:53:23.967Z,98498.14
2018-06-27T13:55:51.526Z,98495.54
2018-06-27T13:58:19.090Z,98492.29
2018-06-27T14:00:46.643Z,98488.64
2018-06-27T14:03:14.179Z,98493.80
2018-06-27T14:05:43.153Z,98491.66
2018-06-27T14:08:10.776Z,98491.19
2018-06-27T14:10:38.426Z,98494.31
2018-06-27T14:13:06.033Z,98490.77
2018-06-27T14:15:33.935Z,98492.56
2018-06-27T14:18:01.722Z,98495.75
2018-06-27T14:20:29.309Z,98494.80
2018-06-27T14:22:57.224Z,98483.24
2018-06-27T14:25:24.950Z,98486.02
2018-06-27T14:27:52.816Z,98475.01
2018-06-27T14:30:20.423Z,98469.41
2018-06-27T14:32:48.205Z,98475.13
2018-06-27T14:35:16.041Z,98468.67
2018-06-27T14:37:43.638Z,98468.27
2018-06-27T14:40:11.379Z,98473.27
2018-06-27T14:42:38.922Z,98474.04
2018-06-27T14:45:07.054Z,98468.63
2018-06-27T14:47:34.695Z,98473.88
2018-06-27T14:50:02.435Z,98463.38
2018-06-27T14:52:30.004Z,98457.52
2018-06-27T14:54:57.878Z,98454.58
2018-06-27T14:57:25.845Z,98455.86
2018-06-27T14:59:53.468Z,98460.30
2018-06-27T15:02:21.454Z,98450.27
2018-06-27T15:04:49.096Z,98451.58
2018-06-27T15:07:17.011Z,98439.77
2018-06-27T15:09:44.982Z,98444.67
2018-06-27T15:12:12.828Z,98437.42
2018-06-27T15:14:40.446Z,98445.95
2018-06-27T15:17:08.021Z,98444.23
2018-06-27T15:19:35.832Z,98440.69
2018-06-27T15:22:03.476Z,98438.02
2018-06-27T15:24:31.051Z,98445.59
2018-06-27T15:26:59.824Z,98448.97
2018-06-27T15:29:27.485Z,98448.75
2018-06-27T15:31:55.270Z,98447.70
2018-06-27T15:34:23.075Z,98448.84
2018-06-27T15:36:51.055Z,98442.75
2018-06-27T15:39:18.716Z,98441.14
2018-06-27T15:41:46.572Z,98439.13
2018-06-27T15:44:14.334Z,98437.66
2018-06-27T15:46:42.118Z,98435.30
2018-06-27T15:49:11.103Z,98427.81
2018-06-27T15:51:39.215Z,98423.68
2018-06-27T15:54:07.097Z,98426.80
2018-06-27T15:56:34.949Z,98424.19
2018-06-27T15:59:02.888Z,98415.92
2018-06-27T16:01:30.664Z,98420.72
2018-06-27T16:03:58.659Z,98423.05
2018-06-27T16:06:26.807Z,98426.27
2018-06-27T16:08:54.598Z,98423.37
2018-06-27T16:11:22.220Z,98428.28
2018-06-27T16:13:49.819Z,98418.51
2018-06-27T16:16:17.369Z,98414.22
2018-06-27T16:18:44.959Z,98413.23
2018-06-27T16:21:12.658Z,98409.38
2018-06-27T16:23:40.246Z,98415.37
2018-06-27T16:26:07.882Z,98417.44
2018-06-27T16:28:35.473Z,98415.59
2018-06-27T16:31:03.097Z,98431.30
2018-06-27T16:33:30.711Z,98430.97
2018-06-27T16:35:58.384Z,98435.38
2018-06-27T16:38:26.111Z,98427.68
2018-06-27T16:40:53.737Z,98425.28
2018-06-27T16:43:21.294Z,98431.41
2018-06-27T16:45:48.938Z,98434.38
2018-06-27T16:48:16.565Z,98439.41
2018-06-27T16:50:44.369Z,98432.79
2018-06-27T16:53:12.970Z,98429.33
2018-06-27T16:55:40.663Z,98424.19
2018-06-27T16:58:08.562Z,98419.06
2018-06-27T17:00:36.188Z,98415.84
2018-06-27T17:03:03.819Z,98420.11
2018-06-27T17:05:31.510Z,98421.66
2018-06-27T17:07:59.124Z,98424.05
2018-06-27T17:10:26.721Z,98430.50
2018-06-27T17:12:55.474Z,98431.92
2018-06-27T17:15:23.051Z,98434.53
2018-06-27T17:17:50.765Z,98434.62
2018-06-27T17:20:18.287Z,98436.27
2018-06-27T17:22:45.855Z,98441.62
2018-06-27T17:25:13.540Z,98438.34
2018-06-27T17:27:41.066Z,98457.06
2018-06-27T17:30:08.637Z,98450.09
2018-06-27T17:32:36.314Z,98451.82
2018-06-27T17:35:04.236Z,98449.55
2018-06-27T17:37:31.984Z,98448.90
2018-06-27T17:39:59.718Z,98449.64
2018-06-27T17:42:27.354Z,98452.45
2018-06-27T17:44:54.997Z,98456.16
2018-06-27T17:47:22.647Z,98458.45
2018-06-27T17:49:50.229Z,98456.65
2018-06-27T17:52:17.816Z,98457.45
2018-06-27T17:54:45.439Z,98462.30
2018-06-27T17:57:13.073Z,98461.87
2018-06-27T17:59:40.635Z,98469.44
2018-06-27T18:02:08.288Z,98466.18
2018-06-27T18:04:36.437Z,98465.62
2018-06-27T18:07:04.164Z,98470.08
2018-06-27T18:09:31.816Z,98472.55
2018-06-27T18:11:59.457Z,98482.64
2018-06-27T18:14:27.104Z,98476.55
2018-06-27T18:16:54.880Z,98468.27
2018-06-27T18:19:22.439Z,98466.05
2018-06-27T18:21:50.057Z,98464.41
2018-06-27T18:24:17.740Z,98469.73
2018-06-27T18:26:45.417Z,98467.31
2018-06-27T18:29:13.059Z,98473.84
2018-06-27T18:31:40.766Z,98468.45
2018-06-27T18:34:08.420Z,98473.59
2018-06-27T18:36:36.058Z,98472.53
2018-06-27T18:39:05.774Z,98466.89
2018-06-27T18:41:33.357Z,98467.94
2018-06-27T18:44:00.931Z,98472.49
2018-06-27T18:46:28.601Z,98471.20
2018-06-27T18:48:56.222Z,98471.08
2018-06-27T18:51:23.835Z,98475.68
2018-06-27T18:53:51.547Z,98480.75
2018-06-27T18:56:19.162Z,98481.47
2018-06-27T18:58:46.941Z,98483.07
2018-06-27T19:01:14.631Z,98478.52
2018-06-27T19:03:42.569Z,98474.11
2018-06-27T19:06:10.208Z,98477.65
2018-06-27T19:08:37.958Z,98479.58
2018-06-27T19:11:05.579Z,98477.78
2018-06-27T19:13:33.216Z,98478.55
2018-06-27T19:16:00.874Z,98484.01
2018-06-27T19:18:28.461Z,98487.27
2018-06-27T19:20:56.083Z,98480.28
2018-06-27T19:23:23.716Z,98495.31
2018-06-27T19:25:51.316Z,98493.84
2018-06-27T19:28:18.934Z,98499.02
2018-06-27T19:30:46.530Z,98499.34
2018-06-27T19:33:14.102Z,98502.80
2018-06-27T19:35:41.725Z,98500.28
2018-06-27T19:38:09.409Z,98500.64
2018-06-27T19:40:37.055Z,98504.62
2018-06-27T19:43:04.602Z,98507.19
2018-06-27T19:45:32.220Z,98505.83
2018-06-27T19:47:59.975Z,98506.47
2018-06-27T19:50:27.412Z,98499.13
2018-06-27T19:52:55.103Z,98507.63
2018-06-27T19:55:22.698Z,98509.72
2018-06-27T19:57:50.407Z,98511.77
2018-06-27T20:00:18.095Z,98510.50
2018-06-27T20:02:45.635Z,98510.25
2018-06-27T20:05:13.228Z,98510.33
2018-06-27T20:07:40.977Z,98512.00
2018-06-27T20:10:08.479Z,98516.80
2018-06-27T20:12:36.131Z,98516.71
2018-06-27T20:15:03.847Z,98515.34
2018-06-27T20:17:31.617Z,98521.22
2018-06-27T20:19:59.175Z,98515.76
2018-06-27T20:22:26.900Z,98517.68
2018-06-27T20:24:54.388Z,98515.41
2018-06-27T20:27:21.990Z,98518.63
2018-06-27T20:29:49.551Z,98517.73
2018-06-27T20:32:17.075Z,98514.58
2018-06-27T20:34:44.668Z,98513.06
2018-06-27T20:37:12.307Z,98516.92
2018-06-27T20:39:39.814Z,98514.39
2018-06-27T20:42:07.400Z,98522.08
2018-06-27T20:44:34.953Z,98515.84
2018-06-27T20:47:02.543Z,98514.07
2018-06-27T20:49:30.171Z,98514.22
2018-06-27T20:51:57.973Z,98510.53
2018-06-27T20:54:25.547Z,98517.44
2018-06-27T20:56:53.140Z,98513.23
2018-06-27T20:59:20.934Z,98519.14
2018-06-27T21:01:48.534Z,98515.17
2018-06-27T21:04:16.093Z,98519.66
2018-06-27T21:06:43.671Z,98519.67
2018-06-27T21:09:11.779Z,98517.50
2018-06-27T21:11:39.352Z,98512.66
2018-06-27T21:14:06.903Z,98519.05
2018-06-27T21:16:34.431Z,98529.87
2018-06-27T21:19:01.989Z,98516.45
2018-06-27T21:21:29.583Z,98524.38
2018-06-27T21:23:57.141Z,98528.72
2018-06-27T21:26:24.646Z,98531.27
2018-06-27T21:28:52.182Z,98530.63
2018-06-27T21:31:19.735Z,98532.53
2018-06-27T21:33:47.451Z,98533.06
2018-06-27T21:36:15.026Z,98525.28
2018-06-27T21:38:43.666Z,98527.69
2018-06-27T21:41:11.194Z,98528.72
2018-06-27T21:43:38.750Z,98530.63
2018-06-27T21:46:06.280Z,98541.98
2018-06-27T21:48:33.863Z,98538.27
2018-06-27T21:51:01.413Z,98539.31
2018-06-27T21:53:28.950Z,98538.78
2018-06-27T21:55:56.522Z,98535.87
2018-06-27T21:58:24.332Z,98538.41
2018-06-27T22:00:51.959Z,98535.73
2018-06-27T22:03:19.478Z,98531.53
2018-06-27T22:05:47.066Z,98539.95
2018-06-27T22:08:14.610Z,98538.41
2018-06-27T22:10:42.133Z,98538.28
2018-06-27T22:13:09.690Z,98541.59
2018-06-27T22:15:37.245Z,98544.16
2018-06-27T22:18:04.928Z,98538.67
2018-06-27T22:20:32.522Z,98532.03
2018-06-27T22:23:00.058Z,98535.60
2018-06-27T22:25:28.748Z,98532.40
2018-06-27T22:27:56.407Z,98531.39
2018-06-27T22:30:23.962Z,98532.66
2018-06-27T22:32:51.531Z,98526.14
2018-06-27T22:35:19.115Z,98528.05
2018-06-27T22:37:46.655Z,98532.14
2018-06-27T22:40:14.182Z,98527.53
2018-06-27T22:42:41.763Z,98528.43
2018-06-27T22:45:09.323Z,98517.97
2018-06-27T22:47:36.836Z,98519.88
2018-06-27T22:50:04.463Z,98521.41
2018-06-27T22:52:32.018Z,98522.27
2018-06-27T22:54:59.570Z,98518.45
2018-06-27T22:57:27.178Z,98521.38
2018-06-27T22:59:54.738Z,98517.41
2018-06-27T23:02:22.275Z,98517.91
2018-06-27T23:04:49.815Z,98522.00
2018-06-27T23:07:17.370Z,98512.05
2018-06-27T23:09:44.937Z,98509.75
2018-06-27T23:12:12.450Z,98515.85
2018-06-27T23:14:40.027Z,98512.81
2018-06-27T23:17:07.652Z,98512.41
2018-06-27T23:19:35.159Z,98510.01
2018-06-27T23:22:02.719Z,98499.56
2018-06-27T23:24:30.278Z,98502.86
2018-06-27T23:26:57.886Z,98501.33
2018-06-27T23:29:25.402Z,98497.26
2018-06-27T23:31:52.951Z,98495.72
2018-06-27T23:34:20.575Z,98492.28
2018-06-27T23:36:48.137Z,98491.66
2018-06-27T23:39:15.660Z,98484.23
2018-06-27T23:41:43.597Z,98486.91
2018-06-27T23:44:11.119Z,98486.80
2018-06-27T23:46:38.779Z,98491.06
2018-06-27T23:49:06.527Z,98480.38
2018-06-27T23:51:34.071Z,98474.51
2018-06-27T23:54:01.635Z,98477.04
2018-06-27T23:56:29.176Z,98468.76
2018-06-27T23:58:56.795Z,98473.45
